Virginia City, Montana
Current Conditions -  °F | °C
As of 1:53 AM on Saturday 29 Nov 2014 (Local Time) from KDLN Reporting Station
Scattered Clouds Scattered Clouds  
Wind Chill: 36°   Ceiling: Unl
Heat Index: 43°   Visibility: 10mi
Dew Point: 25°   Wind: 14mph
Humidity: 49%   Direction: 230°SW
Pressure: 29.43"   Gusts: NA
Location:  45.29°N, 111.95°W
Report Text: KDLN 290853Z AUTO 23012KT 10SM SCT110 06/M04 A2943 RMK AO2 SLP938 T00611039 56010
Loading
Personal Weather Stations






























Interactive Weather Map New forecast layout! Learn more

10-Day Weather Forecast

Advertisements
Track Severe Weather on mobile